Big Hole Natl Battlefield, Montana
Current Conditions -  °F | °C
As of 4:55 PM on Friday 31 Oct 2014 (Local Time) from KSMN Reporting Station
Clear Clear  
Wind Chill: 61°   Ceiling: Unl
Heat Index: 61°   Visibility: 10mi
Dew Point: 36°   Wind: 0mph
Humidity: 39%   Direction: NA
Pressure: 29.75"   Gusts: NA
Location:  45.64°N, 113.65°W
Report Text: KSMN 312255Z AUTO 00000KT 10SM CLR 16/02 A2975 RMK AO1
Loading
Personal Weather Stations






























Interactive Weather Map
Tropical Storm Tracking
New forecast layout! Learn more

10-Day Weather Forecast

Advertisements
Track Severe Weather on mobile